Time;durP1;ratioP1;P1;durP2;ratioP2;P2;SDS_P1;SDS_P2;PMS_P1;PMS_P2;Temp;Humidity;BMP_temperature;BMP_pressure;BME280_temperature;BME280_humidity;BME280_pressure;Samples;Min_cycle;Max_cycle;Signal;HPM_P1;HPM_P2
2023/02/22 00:00:26;;;;;;;68.93;10.75;;;;;;;;;;5073754;28;20688;-65
2023/02/22 00:02:58;;;;;;;69.05;11.32;;;;;;;;;;5074143;28;20208;-64
2023/02/22 00:05:26;;;;;;;68.45;11.65;;;;;;;;;;5073813;28;20240;-65
2023/02/22 00:07:55;;;;;;;68.00;11.32;;;;;;;;;;5073770;28;20210;-64
2023/02/22 00:10:23;;;;;;;68.55;10.60;;;;;;;;;;5073241;28;20712;-65
2023/02/22 00:12:51;;;;;;;69.43;10.93;;;;;;;;;;5073490;28;20850;-65
2023/02/22 00:15:20;;;;;;;68.07;10.90;;;;;;;;;;5073949;28;20749;-65
2023/02/22 00:17:47;;;;;;;68.63;10.25;;;;;;;;;;5073766;28;20208;-64
2023/02/22 00:20:18;;;;;;;66.28;10.32;;;;;;;;;;5073218;28;20226;-64
2023/02/22 00:22:46;;;;;;;69.43;11.48;;;;;;;;;;5073274;28;20219;-65
2023/02/22 00:25:13;;;;;;;68.70;10.85;;;;;;;;;;5073545;28;20256;-64
2023/02/22 00:27:40;;;;;;;70.07;11.15;;;;;;;;;;5073543;28;20231;-65
2023/02/22 00:30:09;;;;;;;68.57;10.25;;;;;;;;;;5073163;28;20209;-64
2023/02/22 00:32:37;;;;;;;69.97;11.27;;;;;;;;;;5073248;28;20723;-65
2023/02/22 00:35:07;;;;;;;69.30;10.38;;;;;;;;;;5072213;28;20236;-65
2023/02/22 00:37:34;;;;;;;68.93;10.25;;;;;;;;;;5073743;28;20297;-65
2023/02/22 00:40:06;;;;;;;67.75;10.90;;;;;;;;;;5072888;28;20258;-65
2023/02/22 00:42:34;;;;;;;68.40;11.18;;;;;;;;;;5073029;28;20750;-65
2023/02/22 00:45:02;;;;;;;72.13;11.30;;;;;;;;;;5072985;28;20223;-65
2023/02/22 00:47:29;;;;;;;67.45;10.90;;;;;;;;;;5073008;28;20207;-65
2023/02/22 00:49:57;;;;;;;70.55;12.10;;;;;;;;;;5072488;28;20219;-65
2023/02/22 00:52:24;;;;;;;69.35;11.43;;;;;;;;;;5073044;28;20207;-65
2023/02/22 00:54:51;;;;;;;65.63;9.88;;;;;;;;;;5072733;28;20235;-65
2023/02/22 00:57:19;;;;;;;69.53;10.30;;;;;;;;;;5073158;28;20219;-64
2023/02/22 00:59:46;;;;;;;71.15;10.70;;;;;;;;;;5072383;28;20211;-65
2023/02/22 01:02:13;;;;;;;68.00;10.98;;;;;;;;;;5072629;28;20223;-65
2023/02/22 01:04:40;;;;;;;67.30;10.45;;;;;;;;;;5072678;28;20593;-64
2023/02/22 01:07:09;;;;;;;69.40;11.45;;;;;;;;;;5072856;28;20213;-64
2023/02/22 01:09:38;;;;;;;66.88;10.18;;;;;;;;;;5072547;28;20207;-64
2023/02/22 01:12:06;;;;;;;68.05;11.10;;;;;;;;;;5072521;28;20209;-64
2023/02/22 01:14:34;;;;;;;70.15;11.40;;;;;;;;;;5072202;28;20245;-65
2023/02/22 01:17:01;;;;;;;68.60;11.20;;;;;;;;;;5072275;28;20212;-65
2023/02/22 01:19:28;;;;;;;68.05;10.80;;;;;;;;;;5071954;28;20217;-64
2023/02/22 01:21:55;;;;;;;67.18;11.05;;;;;;;;;;5072433;28;20211;-64
2023/02/22 01:24:24;;;;;;;67.90;10.85;;;;;;;;;;5072124;28;20208;-65
2023/02/22 01:26:52;;;;;;;67.60;11.07;;;;;;;;;;5072197;28;20210;-64
2023/02/22 01:29:20;;;;;;;69.60;12.32;;;;;;;;;;5071707;28;20690;-64
2023/02/22 01:31:53;;;;;;;69.00;10.68;;;;;;;;;;5072557;28;20207;-65
2023/02/22 01:34:20;;;;;;;67.25;10.75;;;;;;;;;;5072115;28;20227;-65
2023/02/22 01:36:47;;;;;;;69.63;11.43;;;;;;;;;;5072124;28;20277;-65
2023/02/22 01:39:15;;;;;;;65.80;9.30;;;;;;;;;;5071715;28;20212;-65
2023/02/22 01:41:43;;;;;;;67.72;10.60;;;;;;;;;;5071931;28;20215;-65
2023/02/22 01:44:18;;;;;;;68.13;10.48;;;;;;;;;;5071828;28;20201;-64
2023/02/22 01:46:45;;;;;;;68.90;10.50;;;;;;;;;;5071759;28;20684;-64
2023/02/22 01:49:13;;;;;;;68.07;10.45;;;;;;;;;;5072001;28;20213;-65
2023/02/22 01:51:42;;;;;;;68.07;10.75;;;;;;;;;;5072013;28;20606;-65
2023/02/22 01:54:12;;;;;;;67.82;10.43;;;;;;;;;;5071679;28;20314;-64
2023/02/22 01:56:40;;;;;;;70.15;11.27;;;;;;;;;;5071876;28;20215;-65
2023/02/22 01:59:10;;;;;;;71.97;11.85;;;;;;;;;;5071809;28;20215;-65
2023/02/22 02:01:38;;;;;;;67.80;9.82;;;;;;;;;;5071896;28;20215;-65
2023/02/22 02:04:08;;;;;;;67.90;10.60;;;;;;;;;;5069832;28;20209;-65
2023/02/22 02:06:36;;;;;;;70.32;10.30;;;;;;;;;;5071913;28;20254;-65
2023/02/22 02:09:05;;;;;;;66.95;10.13;;;;;;;;;;5071585;28;20206;-64
2023/02/22 02:11:33;;;;;;;70.30;11.85;;;;;;;;;;5071757;28;20207;-65
2023/02/22 02:14:00;;;;;;;68.70;10.30;;;;;;;;;;5071700;28;20229;-64
2023/02/22 02:16:35;;;;;;;67.45;11.20;;;;;;;;;;5071624;28;20232;-65
2023/02/22 02:19:02;;;;;;;65.57;9.70;;;;;;;;;;5071816;28;20212;-64
2023/02/22 02:21:39;;;;;;;71.50;11.60;;;;;;;;;;5071602;28;20213;-65
2023/02/22 02:24:19;;;;;;;67.82;10.40;;;;;;;;;;5071598;28;20210;-64
2023/02/22 02:26:54;;;;;;;69.95;11.23;;;;;;;;;;5071566;28;20211;-64
2023/02/22 02:29:54;;;;;;;70.25;10.60;;;;;;;;;;5071069;28;20210;-65
2023/02/22 02:32:31;;;;;;;72.38;11.15;;;;;;;;;;5071600;28;20638;-65
2023/02/22 02:35:04;;;;;;;66.28;9.50;;;;;;;;;;5071361;28;20234;-65
2023/02/22 02:37:35;;;;;;;69.15;10.77;;;;;;;;;;5071347;28;20211;-65
2023/02/22 02:40:10;;;;;;;67.50;10.85;;;;;;;;;;5071287;28;20214;-65
2023/02/22 02:42:38;;;;;;;69.55;10.65;;;;;;;;;;5071541;28;20202;-64
2023/02/22 02:45:09;;;;;;;69.97;11.10;;;;;;;;;;5071465;28;20606;-65
2023/02/22 02:47:40;;;;;;;69.35;10.52;;;;;;;;;;5071536;28;20208;-65
2023/02/22 02:50:10;;;;;;;67.60;11.00;;;;;;;;;;5070964;28;20222;-65
2023/02/22 02:52:38;;;;;;;91.57;12.65;;;;;;;;;;5071375;28;20215;-64
2023/02/22 02:55:07;;;;;;;67.82;10.90;;;;;;;;;;5071186;28;20245;-67
2023/02/22 02:57:34;;;;;;;69.25;10.98;;;;;;;;;;5071865;28;20564;-68
2023/02/22 03:00:01;;;;;;;72.43;11.00;;;;;;;;;;5072175;28;20208;-67
2023/02/22 03:02:39;;;;;;;69.35;10.73;;;;;;;;;;5074962;28;20680;-67
2023/02/22 03:05:15;;;;;;;71.65;11.15;;;;;;;;;;5075064;28;20223;-67
2023/02/22 03:07:46;;;;;;;70.18;11.77;;;;;;;;;;5075199;28;20212;-68
2023/02/22 03:10:21;;;;;;;68.10;11.38;;;;;;;;;;5074921;28;20207;-65
2023/02/22 03:12:50;;;;;;;72.95;11.48;;;;;;;;;;5074945;28;20223;-64
2023/02/22 03:15:23;;;;;;;73.68;12.90;;;;;;;;;;5074514;28;20703;-65
2023/02/22 03:17:54;;;;;;;69.13;11.07;;;;;;;;;;5074576;28;20359;-64
2023/02/22 03:20:30;;;;;;;75.35;12.48;;;;;;;;;;5074711;28;20211;-65
2023/02/22 03:22:58;;;;;;;73.68;11.90;;;;;;;;;;5074585;28;20212;-65
2023/02/22 03:25:31;;;;;;;68.10;11.05;;;;;;;;;;5074578;28;20505;-65
2023/02/22 03:28:01;;;;;;;69.47;11.90;;;;;;;;;;5074452;28;20215;-65
2023/02/22 03:30:31;;;;;;;69.25;11.80;;;;;;;;;;5074317;28;20219;-65
2023/02/22 03:33:00;;;;;;;67.95;12.05;;;;;;;;;;5074382;28;20204;-65
2023/02/22 03:35:31;;;;;;;69.10;11.15;;;;;;;;;;5074369;28;20247;-64
2023/02/22 03:38:00;;;;;;;70.75;11.35;;;;;;;;;;5074352;28;20558;-65
2023/02/22 03:40:30;;;;;;;68.88;11.90;;;;;;;;;;5073930;28;20215;-65
2023/02/22 03:43:00;;;;;;;71.13;12.30;;;;;;;;;;5074051;28;20235;-65
2023/02/22 03:45:28;;;;;;;67.68;11.70;;;;;;;;;;5074343;28;20218;-64
2023/02/22 03:47:59;;;;;;;71.82;11.80;;;;;;;;;;5074236;28;20206;-64
2023/02/22 03:50:29;;;;;;;69.70;12.02;;;;;;;;;;5073956;28;20679;-65
2023/02/22 03:52:58;;;;;;;71.22;11.88;;;;;;;;;;5073991;28;20751;-64
2023/02/22 03:55:27;;;;;;;70.35;12.52;;;;;;;;;;5073694;28;20243;-65
2023/02/22 03:57:55;;;;;;;70.50;12.15;;;;;;;;;;5073703;28;20220;-64
2023/02/22 04:00:24;;;;;;;70.55;11.55;;;;;;;;;;5074044;28;20207;-65
2023/02/22 04:02:51;;;;;;;69.40;11.15;;;;;;;;;;5074006;28;20205;-65
2023/02/22 04:05:18;;;;;;;68.55;11.52;;;;;;;;;;5073804;28;20231;-65
2023/02/22 04:07:46;;;;;;;69.45;12.60;;;;;;;;;;5073737;28;20254;-65
2023/02/22 04:10:15;;;;;;;69.95;11.70;;;;;;;;;;5073426;28;20207;-65
2023/02/22 04:12:42;;;;;;;71.20;11.07;;;;;;;;;;5073816;28;20305;-64
2023/02/22 04:15:12;;;;;;;67.95;11.40;;;;;;;;;;5073549;28;20231;-64
2023/02/22 04:17:39;;;;;;;73.25;12.82;;;;;;;;;;5073686;28;20581;-65
2023/02/22 04:20:07;;;;;;;71.93;12.85;;;;;;;;;;5073188;28;20212;-65
2023/02/22 04:22:34;;;;;;;70.78;12.05;;;;;;;;;;5073428;28;20208;-65
2023/02/22 04:25:01;;;;;;;71.00;11.65;;;;;;;;;;5073564;28;20230;-64
2023/02/22 04:27:30;;;;;;;70.50;11.90;;;;;;;;;;5073621;28;20213;-65
2023/02/22 04:29:57;;;;;;;69.60;11.52;;;;;;;;;;5073060;28;20213;-65
2023/02/22 04:32:24;;;;;;;70.90;12.20;;;;;;;;;;5073224;28;20211;-65
2023/02/22 04:34:51;;;;;;;75.93;12.20;;;;;;;;;;5073518;28;20227;-65
2023/02/22 04:37:18;;;;;;;68.55;11.65;;;;;;;;;;5073343;28;20214;-64
2023/02/22 04:39:45;;;;;;;72.68;12.30;;;;;;;;;;5072995;28;20209;-65
2023/02/22 04:42:12;;;;;;;69.72;12.15;;;;;;;;;;5073246;28;20209;-65
2023/02/22 04:44:41;;;;;;;68.40;9.70;;;;;;;;;;5073059;28;20718;-65
2023/02/22 04:47:08;;;;;;;71.53;11.40;;;;;;;;;;5073039;28;20211;-65
2023/02/22 04:49:35;;;;;;;70.47;13.50;;;;;;;;;;5072487;28;20216;-65
2023/02/22 04:52:02;;;;;;;71.68;13.00;;;;;;;;;;5073031;28;20214;-64
2023/02/22 04:54:29;;;;;;;72.53;12.73;;;;;;;;;;5072790;28;20252;-65
2023/02/22 04:56:57;;;;;;;70.70;12.13;;;;;;;;;;5073015;28;20214;-64
2023/02/22 04:59:24;;;;;;;68.28;13.02;;;;;;;;;;5072841;28;20207;-65
2023/02/22 05:01:52;;;;;;;68.10;11.68;;;;;;;;;;5072683;28;20215;-64
2023/02/22 05:04:20;;;;;;;70.75;10.93;;;;;;;;;;5072422;28;20213;-65
2023/02/22 05:06:47;;;;;;;67.18;11.55;;;;;;;;;;5072894;28;20678;-65
2023/02/22 05:09:15;;;;;;;69.20;11.43;;;;;;;;;;5072401;28;20208;-65
2023/02/22 05:11:42;;;;;;;70.30;12.95;;;;;;;;;;5072444;28;20203;-65
2023/02/22 05:14:09;;;;;;;74.55;13.32;;;;;;;;;;5072455;28;20208;-64
2023/02/22 05:16:36;;;;;;;68.78;13.05;;;;;;;;;;5072337;28;20310;-64
2023/02/22 05:19:05;;;;;;;71.05;12.95;;;;;;;;;;5072280;28;20213;-65
2023/02/22 05:21:32;;;;;;;68.78;11.88;;;;;;;;;;5072044;28;20207;-64
2023/02/22 05:23:59;;;;;;;67.88;11.32;;;;;;;;;;5072199;28;20334;-65
2023/02/22 05:26:26;;;;;;;69.15;11.65;;;;;;;;;;5072234;28;20235;-65
2023/02/22 05:28:53;;;;;;;71.68;12.80;;;;;;;;;;5071998;28;20204;-65
2023/02/22 05:31:20;;;;;;;70.57;13.00;;;;;;;;;;5072186;28;20207;-66
2023/02/22 05:33:48;;;;;;;68.00;11.85;;;;;;;;;;5072209;28;20214;-66
2023/02/22 05:36:16;;;;;;;70.57;12.40;;;;;;;;;;5072220;28;20234;-67
2023/02/22 05:38:43;;;;;;;68.50;11.75;;;;;;;;;;5071976;28;20202;-66
2023/02/22 05:41:11;;;;;;;73.53;12.50;;;;;;;;;;5072382;28;20204;-67
2023/02/22 05:43:38;;;;;;;77.15;13.70;;;;;;;;;;5072347;28;20211;-67
2023/02/22 05:46:06;;;;;;;67.57;12.40;;;;;;;;;;5071971;28;20223;-66
2023/02/22 05:48:33;;;;;;;73.45;13.38;;;;;;;;;;5071586;28;20204;-67
2023/02/22 05:51:00;;;;;;;71.65;12.75;;;;;;;;;;5072482;28;20232;-67
2023/02/22 05:53:29;;;;;;;75.38;13.70;;;;;;;;;;5072664;28;20207;-67
2023/02/22 05:55:56;;;;;;;70.30;12.90;;;;;;;;;;5072434;28;20229;-67
2023/02/22 05:58:23;;;;;;;73.40;13.73;;;;;;;;;;5072107;28;20205;-65
2023/02/22 06:00:50;;;;;;;72.75;13.60;;;;;;;;;;5071704;28;20226;-67
2023/02/22 06:03:17;;;;;;;71.53;13.20;;;;;;;;;;5071861;28;20213;-67
2023/02/22 06:05:44;;;;;;;73.53;12.15;;;;;;;;;;5071729;28;20725;-66
2023/02/22 06:08:11;;;;;;;70.93;12.70;;;;;;;;;;5071709;28;20215;-65
2023/02/22 06:10:40;;;;;;;70.53;11.98;;;;;;;;;;5071370;28;20214;-68
2023/02/22 06:13:07;;;;;;;71.78;13.32;;;;;;;;;;5071766;28;20210;-65
2023/02/22 06:15:34;;;;;;;69.95;12.10;;;;;;;;;;5071315;28;20707;-65
2023/02/22 06:18:02;;;;;;;74.05;13.30;;;;;;;;;;5071693;28;20204;-65
2023/02/22 06:20:29;;;;;;;73.82;13.68;;;;;;;;;;5071332;28;20222;-65
2023/02/22 06:22:57;;;;;;;74.05;12.27;;;;;;;;;;5071391;28;20213;-65
2023/02/22 06:25:26;;;;;;;73.10;13.77;;;;;;;;;;5071356;28;20223;-66
2023/02/22 06:27:55;;;;;;;68.72;10.68;;;;;;;;;;5071576;28;20237;-66
2023/02/22 06:30:23;;;;;;;78.05;14.70;;;;;;;;;;5071327;28;20207;-66
2023/02/22 06:32:50;;;;;;;72.47;13.27;;;;;;;;;;5071457;28;20207;-65
2023/02/22 06:35:18;;;;;;;71.78;12.65;;;;;;;;;;5074995;28;20233;-65
2023/02/22 06:37:45;;;;;;;74.80;12.48;;;;;;;;;;5075536;28;20236;-65
2023/02/22 06:40:12;;;;;;;70.60;13.40;;;;;;;;;;5075057;28;20725;-65
2023/02/22 06:42:40;;;;;;;70.65;12.65;;;;;;;;;;5075562;28;20222;-65
2023/02/22 06:45:09;;;;;;;72.45;12.45;;;;;;;;;;5075417;28;20231;-65
2023/02/22 06:47:38;;;;;;;69.55;13.02;;;;;;;;;;5075220;28;20206;-65
2023/02/22 06:50:06;;;;;;;70.40;13.27;;;;;;;;;;5074829;28;20210;-65
2023/02/22 06:52:33;;;;;;;71.43;13.75;;;;;;;;;;5075117;28;20578;-66
2023/02/22 06:55:00;;;;;;;72.57;13.85;;;;;;;;;;5075273;28;20228;-65
2023/02/22 06:57:27;;;;;;;75.53;13.20;;;;;;;;;;5074493;28;20643;-66
2023/02/22 06:59:54;;;;;;;70.10;12.02;;;;;;;;;;5074554;28;20676;-66
2023/02/22 07:02:23;;;;;;;72.38;13.32;;;;;;;;;;5075044;28;20204;-65
2023/02/22 07:04:50;;;;;;;68.32;12.50;;;;;;;;;;5074834;28;20248;-65
2023/02/22 07:07:17;;;;;;;69.40;12.50;;;;;;;;;;5075010;28;20243;-66
2023/02/22 07:09:46;;;;;;;69.30;13.25;;;;;;;;;;5074691;28;20205;-65
2023/02/22 07:12:13;;;;;;;72.95;12.80;;;;;;;;;;5074854;28;20205;-66
2023/02/22 07:14:41;;;;;;;70.43;13.10;;;;;;;;;;5074960;28;20247;-65
2023/02/22 07:17:08;;;;;;;76.53;12.10;;;;;;;;;;5074637;28;20240;-65
2023/02/22 07:19:36;;;;;;;71.30;12.80;;;;;;;;;;5074319;28;20208;-66
2023/02/22 07:22:05;;;;;;;69.78;12.00;;;;;;;;;;5074738;28;20205;-66
2023/02/22 07:24:33;;;;;;;69.85;11.77;;;;;;;;;;5074502;28;20740;-65
2023/02/22 07:27:01;;;;;;;72.00;11.77;;;;;;;;;;5074480;28;20307;-65
2023/02/22 07:29:30;;;;;;;68.07;12.05;;;;;;;;;;5074074;28;20212;-66
2023/02/22 07:31:57;;;;;;;68.22;11.55;;;;;;;;;;5074749;28;20204;-66
2023/02/22 07:34:24;;;;;;;67.55;12.05;;;;;;;;;;5074268;28;20220;-66
2023/02/22 07:36:53;;;;;;;69.30;12.45;;;;;;;;;;5074326;28;20727;-66
2023/02/22 07:39:20;;;;;;;69.80;12.52;;;;;;;;;;5074096;28;20209;-66
2023/02/22 07:41:48;;;;;;;71.07;11.90;;;;;;;;;;5074168;28;20204;-65
2023/02/22 07:44:16;;;;;;;71.28;11.50;;;;;;;;;;5073810;28;20608;-66
2023/02/22 07:46:47;;;;;;;67.03;12.07;;;;;;;;;;5074023;28;20204;-66
2023/02/22 07:49:14;;;;;;;68.93;11.13;;;;;;;;;;5074077;28;20266;-66
2023/02/22 07:51:41;;;;;;;70.25;11.90;;;;;;;;;;5073858;28;20224;-66
2023/02/22 07:54:10;;;;;;;70.70;12.88;;;;;;;;;;5073947;28;20677;-65
2023/02/22 07:56:37;;;;;;;71.72;10.85;;;;;;;;;;5074004;28;20229;-68
2023/02/22 07:59:04;;;;;;;70.32;11.93;;;;;;;;;;5073617;28;20216;-66
2023/02/22 08:01:31;;;;;;;68.47;10.80;;;;;;;;;;5073707;28;20216;-65
2023/02/22 08:03:58;;;;;;;68.57;11.90;;;;;;;;;;5073814;28;20673;-67
2023/02/22 08:06:27;;;;;;;66.47;11.20;;;;;;;;;;5073893;28;20315;-66
2023/02/22 08:08:54;;;;;;;69.20;11.43;;;;;;;;;;5073538;28;20299;-67
2023/02/22 08:11:22;;;;;;;69.57;11.07;;;;;;;;;;5073907;28;20205;-66
2023/02/22 08:13:49;;;;;;;68.15;11.30;;;;;;;;;;5073737;28;20209;-66
2023/02/22 08:16:16;;;;;;;70.22;11.73;;;;;;;;;;5074125;28;20240;-67
2023/02/22 08:18:43;;;;;;;67.60;11.00;;;;;;;;;;5073399;28;20201;-66
2023/02/22 08:21:10;;;;;;;70.75;11.40;;;;;;;;;;5073553;28;20455;-67
2023/02/22 08:23:38;;;;;;;70.32;10.50;;;;;;;;;;5073674;28;20227;-67
2023/02/22 08:26:05;;;;;;;70.18;11.13;;;;;;;;;;5074031;28;20225;-66
2023/02/22 08:28:34;;;;;;;71.72;10.90;;;;;;;;;;5073470;28;20577;-67
2023/02/22 08:31:01;;;;;;;66.50;10.07;;;;;;;;;;5073674;28;20205;-67
2023/02/22 08:33:28;;;;;;;66.57;11.00;;;;;;;;;;5073547;28;20208;-66
2023/02/22 08:35:55;;;;;;;70.07;11.17;;;;;;;;;;5073041;28;20494;-67
2023/02/22 08:38:23;;;;;;;68.30;11.50;;;;;;;;;;5073210;28;20446;-66
2023/02/22 08:40:51;;;;;;;67.37;11.50;;;;;;;;;;5072870;28;20447;-67
2023/02/22 08:43:18;;;;;;;70.50;11.63;;;;;;;;;;5073317;28;20448;-67
2023/02/22 08:45:47;;;;;;;67.30;11.53;;;;;;;;;;5072931;28;21006;-67
2023/02/22 08:48:14;;;;;;;68.77;11.77;;;;;;;;;;5072984;28;20472;-66
2023/02/22 08:50:43;;;;;;;69.50;10.97;;;;;;;;;;5072918;28;20505;-67
2023/02/22 08:53:10;;;;;;;67.77;9.70;;;;;;;;;;5073048;28;20479;-66
2023/02/22 08:55:38;;;;;;;67.17;11.13;;;;;;;;;;5072268;28;20471;-66
2023/02/22 08:58:08;;;;;;;73.50;11.90;;;;;;;;;;5072569;28;20458;-66
2023/02/22 09:00:35;;;;;;;67.93;10.93;;;;;;;;;;5072288;28;20550;-67
2023/02/22 09:03:04;;;;;;;67.67;10.83;;;;;;;;;;5072657;28;20451;-67
2023/02/22 09:05:31;;;;;;;68.57;10.37;;;;;;;;;;5072525;28;20521;-67
2023/02/22 09:07:58;;;;;;;67.30;11.20;;;;;;;;;;5072581;28;20821;-67
2023/02/22 09:10:27;;;;;;;66.60;11.60;;;;;;;;;;5072664;28;20464;-66
2023/02/22 09:12:54;;;;;;;69.20;11.17;;;;;;;;;;5072603;28;20474;-66
2023/02/22 09:15:22;;;;;;;69.77;10.93;;;;;;;;;;5072439;28;20596;-65
2023/02/22 09:17:49;;;;;;;67.60;10.80;;;;;;;;;;5072395;28;20493;-64
2023/02/22 09:20:18;;;;;;;67.27;11.63;;;;;;;;;;5071956;28;20481;-65
2023/02/22 09:22:46;;;;;;;68.67;11.03;;;;;;;;;;5072448;28;20460;-65
2023/02/22 09:25:13;;;;;;;72.20;11.30;;;;;;;;;;5072430;28;20472;-65
2023/02/22 09:27:42;;;;;;;68.30;11.57;;;;;;;;;;5072393;28;20457;-65
2023/02/22 09:30:13;;;;;;;69.00;10.77;;;;;;;;;;5071896;28;21198;-66
2023/02/22 09:32:40;;;;;;;72.80;12.33;;;;;;;;;;5072216;28;20452;-65
2023/02/22 09:35:08;;;;;;;71.40;11.77;;;;;;;;;;5071770;28;20837;-65
2023/02/22 09:37:36;;;;;;;71.13;12.63;;;;;;;;;;5072367;28;20479;-67
2023/02/22 09:40:08;;;;;;;69.97;11.00;;;;;;;;;;5071643;28;20455;-65
2023/02/22 09:42:40;;;;;;;73.97;12.47;;;;;;;;;;5072163;28;20452;-65
2023/02/22 09:45:11;;;;;;;70.60;11.97;;;;;;;;;;5071954;28;20483;-66
2023/02/22 09:47:40;;;;;;;66.80;10.80;;;;;;;;;;5071901;28;20541;-65
2023/02/22 09:50:14;;;;;;;71.63;12.13;;;;;;;;;;5071680;28;20451;-66
2023/02/22 09:52:48;;;;;;;70.30;11.60;;;;;;;;;;5072154;28;20816;-66
2023/02/22 09:55:24;;;;;;;69.30;12.17;;;;;;;;;;5072020;28;20983;-67
2023/02/22 09:57:54;;;;;;;74.00;12.03;;;;;;;;;;5071738;28;20840;-66
2023/02/22 10:00:22;;;;;;;72.00;11.73;;;;;;;;;;5071637;28;20451;-65
2023/02/22 10:02:51;;;;;;;67.67;11.83;;;;;;;;;;5071949;28;20451;-68
2023/02/22 10:05:22;;;;;;;72.40;11.00;;;;;;;;;;5072179;28;20481;-67
2023/02/22 10:07:53;;;;;;;65.20;10.80;;;;;;;;;;5071869;28;20447;-68
2023/02/22 10:10:23;;;;;;;72.70;11.17;;;;;;;;;;5071496;28;20451;-68
2023/02/22 10:12:57;;;;;;;67.80;11.87;;;;;;;;;;5071904;28;20462;-68
2023/02/22 10:15:51;;;;;;;68.80;11.00;;;;;;;;;;5071736;28;20475;-66
2023/02/22 10:18:36;;;;;;;68.87;10.73;;;;;;;;;;5035380;28;20514;-65
2023/02/22 10:21:09;;;;;;;68.13;11.87;;;;;;;;;;5061975;28;20447;-65
2023/02/22 10:23:41;;;;;;;66.00;11.00;;;;;;;;;;5071508;28;20451;-66
2023/02/22 10:26:14;;;;;;;70.63;11.70;;;;;;;;;;5071472;28;20471;-66
2023/02/22 10:28:43;;;;;;;70.87;11.33;;;;;;;;;;5071268;28;20446;-66
2023/02/22 10:31:14;;;;;;;66.67;10.73;;;;;;;;;;5071411;28;20439;-66
2023/02/22 10:33:43;;;;;;;65.63;10.00;;;;;;;;;;5071381;28;20936;-65
2023/02/22 10:36:16;;;;;;;67.33;11.03;;;;;;;;;;5071545;28;20465;-66
2023/02/22 10:38:48;;;;;;;68.10;10.60;;;;;;;;;;5071083;28;20807;-68
2023/02/22 10:41:22;;;;;;;67.00;10.50;;;;;;;;;;5071698;28;20451;-69
2023/02/22 10:43:49;;;;;;;66.50;9.77;;;;;;;;;;5071313;28;20443;-69
2023/02/22 10:46:19;;;;;;;66.93;10.00;;;;;;;;;;5071473;28;20463;-68
2023/02/22 10:48:47;;;;;;;65.03;9.60;;;;;;;;;;5071540;28;20443;-69
2023/02/22 10:51:15;;;;;;;70.70;9.80;;;;;;;;;;5071468;28;20438;-69
2023/02/22 10:53:42;;;;;;;65.07;10.00;;;;;;;;;;5071364;28;20943;-66
2023/02/22 10:56:12;;;;;;;66.87;10.67;;;;;;;;;;5071219;28;20470;-66
2023/02/22 10:58:43;;;;;;;68.13;10.27;;;;;;;;;;5071051;28;20444;-66
2023/02/22 11:01:20;;;;;;;63.67;9.27;;;;;;;;;;5071295;28;20466;-66
2023/02/22 11:03:56;;;;;;;63.80;9.63;;;;;;;;;;5071163;28;20449;-66
2023/02/22 11:06:23;;;;;;;69.50;9.00;;;;;;;;;;5071201;28;20485;-67
2023/02/22 11:08:51;;;;;;;66.70;9.60;;;;;;;;;;5070692;28;20453;-66
2023/02/22 11:11:28;;;;;;;66.63;10.20;;;;;;;;;;5071583;28;20450;-69
2023/02/22 11:13:55;;;;;;;65.90;9.30;;;;;;;;;;5071141;28;20455;-67
2023/02/22 11:16:27;;;;;;;65.53;10.03;;;;;;;;;;5070889;28;20468;-67
2023/02/22 11:19:00;;;;;;;66.80;10.40;;;;;;;;;;5070798;28;20451;-67
2023/02/22 11:21:27;;;;;;;65.77;10.53;;;;;;;;;;5074984;28;20432;-67
2023/02/22 11:24:02;;;;;;;66.27;11.13;;;;;;;;;;5074888;28;20458;-68
2023/02/22 11:26:37;;;;;;;66.37;10.17;;;;;;;;;;5075643;28;20470;-68
2023/02/22 11:29:09;;;;;;;73.57;11.27;;;;;;;;;;5074425;28;20447;-67
2023/02/22 11:31:42;;;;;;;63.60;9.27;;;;;;;;;;5074816;28;20451;-67
2023/02/22 11:34:25;;;;;;;66.60;10.50;;;;;;;;;;5075831;28;20550;-67
2023/02/22 11:36:52;;;;;;;66.50;10.37;;;;;;;;;;5075956;28;20487;-68
2023/02/22 11:39:23;;;;;;;66.10;11.10;;;;;;;;;;5075313;28;20451;-67
2023/02/22 11:41:52;;;;;;;64.77;10.77;;;;;;;;;;5076174;28;20454;-67
2023/02/22 11:44:23;;;;;;;70.33;11.03;;;;;;;;;;5075835;28;20454;-67
2023/02/22 11:46:54;;;;;;;65.83;11.10;;;;;;;;;;5075517;28;20454;-67
2023/02/22 11:49:22;;;;;;;65.33;10.43;;;;;;;;;;5073980;28;20485;-67
2023/02/22 11:52:02;;;;;;;65.73;11.30;;;;;;;;;;5074494;28;20455;-67
2023/02/22 11:54:36;;;;;;;66.20;11.10;;;;;;;;;;5074256;28;20553;-68
2023/02/22 11:57:20;;;;;;;65.60;11.30;;;;;;;;;;5074265;28;20576;-67
2023/02/22 11:59:54;;;;;;;66.87;11.30;;;;;;;;;;5072058;28;20959;-67
2023/02/22 12:02:30;;;;;;;67.33;11.37;;;;;;;;;;5074053;28;20520;-67
2023/02/22 12:05:02;;;;;;;68.17;11.20;;;;;;;;;;5074016;28;20747;-67
2023/02/22 12:07:38;;;;;;;66.47;11.50;;;;;;;;;;5074123;28;20446;-67
2023/02/22 12:10:13;;;;;;;65.10;11.10;;;;;;;;;;5073509;28;20977;-68
2023/02/22 12:12:47;;;;;;;64.10;10.20;;;;;;;;;;5073985;28;20438;-65
2023/02/22 12:15:18;;;;;;;63.70;10.37;;;;;;;;;;5073740;28;20485;-67
2023/02/22 12:17:51;;;;;;;69.10;11.90;;;;;;;;;;5073768;28;21003;-68
2023/02/22 12:20:23;;;;;;;66.43;10.67;;;;;;;;;;5073403;28;20454;-67
2023/02/22 12:22:55;;;;;;;66.07;10.57;;;;;;;;;;5073381;28;20467;-67
2023/02/22 12:25:25;;;;;;;67.20;10.70;;;;;;;;;;5073397;28;20463;-67
2023/02/22 12:27:54;;;;;;;67.27;11.43;;;;;;;;;;5073360;28;20440;-67
2023/02/22 12:30:24;;;;;;;66.40;10.87;;;;;;;;;;5073089;28;20933;-66
2023/02/22 12:32:53;;;;;;;65.53;10.57;;;;;;;;;;5072749;28;20451;-67
2023/02/22 12:35:22;;;;;;;70.50;10.93;;;;;;;;;;5072995;28;20477;-66
2023/02/22 12:37:53;;;;;;;66.07;10.70;;;;;;;;;;5072966;28;20996;-66
2023/02/22 12:40:23;;;;;;;65.70;11.30;;;;;;;;;;5072886;28;20827;-67
2023/02/22 12:42:54;;;;;;;67.40;10.87;;;;;;;;;;5072935;28;20971;-66
2023/02/22 12:45:28;;;;;;;66.00;10.77;;;;;;;;;;5073032;28;20479;-66
2023/02/22 12:48:00;;;;;;;65.10;11.33;;;;;;;;;;5073083;28;20446;-67
2023/02/22 12:50:33;;;;;;;69.97;13.77;;;;;;;;;;5072904;28;20451;-65
2023/02/22 12:53:02;;;;;;;70.03;12.50;;;;;;;;;;5072761;28;20820;-65
2023/02/22 12:55:32;;;;;;;68.00;13.17;;;;;;;;;;5072801;28;20476;-66
2023/02/22 12:58:06;;;;;;;71.03;11.80;;;;;;;;;;5072818;28;20487;-66
2023/02/22 13:00:38;;;;;;;70.50;12.70;;;;;;;;;;5072508;28;20461;-65
2023/02/22 13:03:08;;;;;;;74.57;12.87;;;;;;;;;;5072784;28;20948;-66
2023/02/22 13:05:38;;;;;;;71.30;11.70;;;;;;;;;;5072703;28;20514;-65
2023/02/22 13:08:22;;;;;;;67.70;12.13;;;;;;;;;;5072498;28;20455;-66
2023/02/22 13:10:57;;;;;;;66.87;10.77;;;;;;;;;;5072242;28;20451;-66
2023/02/22 13:13:27;;;;;;;68.27;11.93;;;;;;;;;;5072405;28;20541;-66
2023/02/22 13:16:00;;;;;;;69.37;12.23;;;;;;;;;;5072478;28;21014;-66
2023/02/22 13:18:31;;;;;;;73.90;12.40;;;;;;;;;;5072330;28;20485;-66
2023/02/22 13:21:01;;;;;;;66.70;11.67;;;;;;;;;;5072166;28;20490;-63
2023/02/22 13:23:34;;;;;;;71.30;12.13;;;;;;;;;;5072163;28;20463;-64
2023/02/22 13:26:06;;;;;;;68.87;13.27;;;;;;;;;;5072275;28;20998;-64
2023/02/22 13:28:36;;;;;;;76.77;14.20;;;;;;;;;;5071686;28;20451;-66
2023/02/22 13:31:12;;;;;;;71.87;13.10;;;;;;;;;;5072249;28;20447;-67
2023/02/22 13:33:50;;;;;;;67.67;11.60;;;;;;;;;;5072391;28;20457;-67
2023/02/22 13:36:30;;;;;;;68.17;11.63;;;;;;;;;;5072185;28;20467;-67
2023/02/22 13:39:08;;;;;;;64.77;11.83;;;;;;;;;;5071466;28;20490;-67
2023/02/22 13:41:49;;;;;;;67.67;12.30;;;;;;;;;;5072239;28;20457;-68
2023/02/22 13:44:24;;;;;;;72.47;11.87;;;;;;;;;;5071707;28;20954;-68
2023/02/22 13:47:15;;;;;;;67.00;12.10;;;;;;;;;;5071871;28;20981;-68
2023/02/22 13:49:52;;;;;;;66.20;10.63;;;;;;;;;;5071673;28;20812;-65
2023/02/22 13:52:22;;;;;;;65.27;11.13;;;;;;;;;;5071994;28;20454;-67
2023/02/22 13:54:53;;;;;;;66.07;12.13;;;;;;;;;;5071759;28;20468;-67
2023/02/22 13:57:21;;;;;;;65.57;11.33;;;;;;;;;;5071658;28;20444;-69
2023/02/22 13:59:48;;;;;;;65.87;10.40;;;;;;;;;;5071475;28;20447;-66
2023/02/22 14:02:35;;;;;;;65.17;11.20;;;5.80;1.00;;;;;;5071684;28;20447;-66
2023/02/22 14:05:48;;;;;;;67.67;11.60;;;25.30;99.90;;;;;;5071530;28;21006;-69
2023/02/22 14:08:45;;;;;;;65.80;12.10;;;22.60;99.90;;;;;;5071883;28;20536;-68
2023/02/22 14:11:55;;;;;;;68.47;12.03;;;21.40;99.90;;;;;;5071896;28;20454;-68
2023/02/22 14:14:23;;;;;;;67.97;12.27;;;22.10;99.90;;;;;;5071334;28;20447;-65
2023/02/22 14:17:21;;;;;;;68.47;11.70;;;20.30;99.90;;;;;;5071350;28;20466;-65
2023/02/22 14:20:28;;;;;;;67.57;12.00;;;20.60;99.90;;;;;;5066981;28;20454;-65
2023/02/22 14:22:58;;;;;;;67.53;12.60;;;20.10;99.90;;;;;;5071623;28;20462;-65
2023/02/22 14:25:41;;;;;;;68.40;11.10;;;18.80;99.90;;;;;;5071444;28;20482;-68
2023/02/22 14:28:30;;;;;;;66.70;12.37;;;18.20;99.90;;;;;;5071568;28;20806;-68
2023/02/22 14:31:06;;;;;;;67.77;12.03;;;17.50;99.90;;;;;;5071648;28;20505;-68